sensor_id;sensor_type;location;lat;lon;timestamp;pressure;altitude;pressure_sealevel;temperature;humidity
35507;BME280;36461;52.018;21.036;2023-01-10T00:01:51;99363.89;;;6.96;97.08
35507;BME280;36461;52.018;21.036;2023-01-10T00:04:19;99364.39;;;6.96;96.94
35507;BME280;36461;52.018;21.036;2023-01-10T00:06:48;99365.20;;;6.98;97.14
35507;BME280;36461;52.018;21.036;2023-01-10T00:09:16;99367.67;;;7.01;97.14
35507;BME280;36461;52.018;21.036;2023-01-10T00:11:44;99369.91;;;7.01;96.91
35507;BME280;36461;52.018;21.036;2023-01-10T00:14:31;99366.63;;;7.01;96.99
35507;BME280;36461;52.018;21.036;2023-01-10T00:17:02;99372.39;;;6.99;96.67
35507;BME280;36461;52.018;21.036;2023-01-10T00:19:30;99372.44;;;6.97;96.72
35507;BME280;36461;52.018;21.036;2023-01-10T00:21:58;99376.15;;;7.00;96.99
35507;BME280;36461;52.018;21.036;2023-01-10T00:24:34;99375.33;;;7.04;97.00
35507;BME280;36461;52.018;21.036;2023-01-10T00:27:02;99381.27;;;7.06;97.10
35507;BME280;36461;52.018;21.036;2023-01-10T00:29:30;99381.47;;;7.05;96.86
35507;BME280;36461;52.018;21.036;2023-01-10T00:31:58;99385.41;;;7.06;96.83
35507;BME280;36461;52.018;21.036;2023-01-10T00:34:26;99388.55;;;7.04;96.72
35507;BME280;36461;52.018;21.036;2023-01-10T00:36:55;99392.15;;;7.04;96.68
35507;BME280;36461;52.018;21.036;2023-01-10T00:39:23;99397.16;;;7.04;96.56
35507;BME280;36461;52.018;21.036;2023-01-10T00:41:54;99406.31;;;7.03;96.56
35507;BME280;36461;52.018;21.036;2023-01-10T00:44:40;99407.96;;;7.00;96.45
35507;BME280;36461;52.018;21.036;2023-01-10T00:47:08;99405.81;;;6.97;96.49
35507;BME280;36461;52.018;21.036;2023-01-10T00:49:37;99407.01;;;6.98;96.73
35507;BME280;36461;52.018;21.036;2023-01-10T00:52:05;99407.52;;;6.98;96.69
35507;BME280;36461;52.018;21.036;2023-01-10T00:54:33;99403.84;;;7.00;96.84
35507;BME280;36461;52.018;21.036;2023-01-10T00:57:01;99403.27;;;7.01;96.74
35507;BME280;36461;52.018;21.036;2023-01-10T00:59:30;99406.70;;;7.01;96.52
35507;BME280;36461;52.018;21.036;2023-01-10T01:01:58;99413.15;;;6.99;96.32
35507;BME280;36461;52.018;21.036;2023-01-10T01:04:26;99413.31;;;6.94;96.08
35507;BME280;36461;52.018;21.036;2023-01-10T01:06:54;99418.08;;;6.90;96.18
35507;BME280;36461;52.018;21.036;2023-01-10T01:09:22;99420.86;;;6.89;96.49
35507;BME280;36461;52.018;21.036;2023-01-10T01:11:50;99426.20;;;6.89;96.46
35507;BME280;36461;52.018;21.036;2023-01-10T01:14:18;99431.44;;;6.86;96.35
35507;BME280;36461;52.018;21.036;2023-01-10T01:16:46;99432.84;;;6.86;96.45
35507;BME280;36461;52.018;21.036;2023-01-10T01:19:14;99439.91;;;6.85;96.42
35507;BME280;36461;52.018;21.036;2023-01-10T01:21:42;99446.77;;;6.86;96.49
35507;BME280;36461;52.018;21.036;2023-01-10T01:24:10;99452.22;;;6.87;96.51
35507;BME280;36461;52.018;21.036;2023-01-10T01:26:39;99447.77;;;6.87;96.45
35507;BME280;36461;52.018;21.036;2023-01-10T01:29:09;99447.39;;;6.87;96.46
35507;BME280;36461;52.018;21.036;2023-01-10T01:31:37;99444.48;;;6.87;96.36
35507;BME280;36461;52.018;21.036;2023-01-10T01:34:06;99447.57;;;6.87;96.35
35507;BME280;36461;52.018;21.036;2023-01-10T01:36:34;99448.79;;;6.87;96.45
35507;BME280;36461;52.018;21.036;2023-01-10T01:39:02;99454.94;;;6.88;96.59
35507;BME280;36461;52.018;21.036;2023-01-10T01:41:30;99453.25;;;6.88;96.37
35507;BME280;36461;52.018;21.036;2023-01-10T01:44:18;99454.70;;;6.85;96.15
35507;BME280;36461;52.018;21.036;2023-01-10T01:47:16;99459.23;;;6.83;96.23
35507;BME280;36461;52.018;21.036;2023-01-10T01:49:47;99462.55;;;6.82;96.22
35507;BME280;36461;52.018;21.036;2023-01-10T01:52:26;99458.05;;;6.83;96.39
35507;BME280;36461;52.018;21.036;2023-01-10T01:54:57;99459.63;;;6.82;96.37
35507;BME280;36461;52.018;21.036;2023-01-10T01:57:27;99456.12;;;6.84;96.41
35507;BME280;36461;52.018;21.036;2023-01-10T01:59:57;99458.41;;;6.82;96.29
35507;BME280;36461;52.018;21.036;2023-01-10T02:02:37;99456.52;;;6.82;96.36
35507;BME280;36461;52.018;21.036;2023-01-10T02:05:12;99455.21;;;6.85;96.47
35507;BME280;36461;52.018;21.036;2023-01-10T02:07:45;99461.92;;;6.85;96.24
35507;BME280;36461;52.018;21.036;2023-01-10T02:12:46;99462.95;;;6.85;96.43
35507;BME280;36461;52.018;21.036;2023-01-10T02:15:16;99464.12;;;6.86;96.37
35507;BME280;36461;52.018;21.036;2023-01-10T02:17:49;99463.14;;;6.85;96.08
35507;BME280;36461;52.018;21.036;2023-01-10T02:20:20;99465.13;;;6.82;95.93
35507;BME280;36461;52.018;21.036;2023-01-10T02:33:41;99470.66;;;6.75;96.15
35507;BME280;36461;52.018;21.036;2023-01-10T02:39:10;99474.81;;;6.75;96.28
35507;BME280;36461;52.018;21.036;2023-01-10T02:41:52;99480.13;;;6.75;96.19
35507;BME280;36461;52.018;21.036;2023-01-10T02:46:57;99493.02;;;6.75;96.19
35507;BME280;36461;52.018;21.036;2023-01-10T02:49:25;99494.98;;;6.73;96.19
35507;BME280;36461;52.018;21.036;2023-01-10T02:51:53;99493.77;;;6.73;96.27
35507;BME280;36461;52.018;21.036;2023-01-10T02:54:25;99491.39;;;6.72;96.25
35507;BME280;36461;52.018;21.036;2023-01-10T03:07:55;99504.83;;;6.66;96.14
35507;BME280;36461;52.018;21.036;2023-01-10T03:10:29;99502.17;;;6.62;96.20
35507;BME280;36461;52.018;21.036;2023-01-10T03:13:04;99498.09;;;6.61;96.26
35507;BME280;36461;52.018;21.036;2023-01-10T03:15:37;99496.02;;;6.62;96.43
35507;BME280;36461;52.018;21.036;2023-01-10T03:18:11;99500.45;;;6.63;96.32
35507;BME280;36461;52.018;21.036;2023-01-10T03:20:43;99500.61;;;6.63;96.38
35507;BME280;36461;52.018;21.036;2023-01-10T03:23:14;99504.56;;;6.63;96.27
35507;BME280;36461;52.018;21.036;2023-01-10T03:25:45;99507.56;;;6.60;96.10
35507;BME280;36461;52.018;21.036;2023-01-10T03:28:27;99510.86;;;6.59;96.29
35507;BME280;36461;52.018;21.036;2023-01-10T03:31:02;99510.30;;;6.61;96.43
35507;BME280;36461;52.018;21.036;2023-01-10T03:33:33;99514.63;;;6.60;96.27
35507;BME280;36461;52.018;21.036;2023-01-10T03:38:55;99526.51;;;6.60;96.24
35507;BME280;36461;52.018;21.036;2023-01-10T03:41:34;99530.49;;;6.59;96.39
35507;BME280;36461;52.018;21.036;2023-01-10T03:44:30;99536.91;;;6.62;96.46
35507;BME280;36461;52.018;21.036;2023-01-10T03:47:22;99534.60;;;6.59;96.16
35507;BME280;36461;52.018;21.036;2023-01-10T03:49:54;99533.96;;;6.57;96.37
35507;BME280;36461;52.018;21.036;2023-01-10T03:52:23;99537.15;;;6.60;96.55
35507;BME280;36461;52.018;21.036;2023-01-10T03:54:52;99538.12;;;6.62;96.51
35507;BME280;36461;52.018;21.036;2023-01-10T03:57:22;99541.39;;;6.62;96.55
35507;BME280;36461;52.018;21.036;2023-01-10T03:59:56;99545.36;;;6.61;96.37
35507;BME280;36461;52.018;21.036;2023-01-10T04:02:29;99556.72;;;6.61;96.41
35507;BME280;36461;52.018;21.036;2023-01-10T04:04:58;99559.67;;;6.60;96.44
35507;BME280;36461;52.018;21.036;2023-01-10T04:07:27;99562.63;;;6.60;96.42
35507;BME280;36461;52.018;21.036;2023-01-10T04:09:55;99567.90;;;6.61;96.44
35507;BME280;36461;52.018;21.036;2023-01-10T04:12:23;99571.14;;;6.62;96.57
35507;BME280;36461;52.018;21.036;2023-01-10T04:14:52;99568.89;;;6.63;96.53
35507;BME280;36461;52.018;21.036;2023-01-10T04:17:20;99571.42;;;6.64;96.46
35507;BME280;36461;52.018;21.036;2023-01-10T04:19:48;99575.29;;;6.67;96.55
35507;BME280;36461;52.018;21.036;2023-01-10T04:22:16;99575.42;;;6.63;96.29
35507;BME280;36461;52.018;21.036;2023-01-10T04:24:45;99578.70;;;6.62;96.44
35507;BME280;36461;52.018;21.036;2023-01-10T04:27:15;99580.79;;;6.61;96.35
35507;BME280;36461;52.018;21.036;2023-01-10T04:30:18;99586.66;;;6.60;96.33
35507;BME280;36461;52.018;21.036;2023-01-10T04:32:59;99590.98;;;6.59;96.31
35507;BME280;36461;52.018;21.036;2023-01-10T04:35:27;99597.52;;;6.59;96.48
35507;BME280;36461;52.018;21.036;2023-01-10T04:37:55;99604.91;;;6.60;96.28
35507;BME280;36461;52.018;21.036;2023-01-10T04:40:23;99609.02;;;6.60;96.47
35507;BME280;36461;52.018;21.036;2023-01-10T04:42:51;99614.99;;;6.61;96.43
35507;BME280;36461;52.018;21.036;2023-01-10T04:45:19;99623.69;;;6.63;96.42
35507;BME280;36461;52.018;21.036;2023-01-10T04:47:50;99630.75;;;6.64;96.24
35507;BME280;36461;52.018;21.036;2023-01-10T04:50:18;99635.52;;;6.65;96.43
35507;BME280;36461;52.018;21.036;2023-01-10T04:52:46;99644.23;;;6.67;96.54
35507;BME280;36461;52.018;21.036;2023-01-10T04:55:14;99647.30;;;6.68;96.22
35507;BME280;36461;52.018;21.036;2023-01-10T04:57:42;99651.48;;;6.66;96.14
35507;BME280;36461;52.018;21.036;2023-01-10T05:00:11;99655.81;;;6.65;96.15
35507;BME280;36461;52.018;21.036;2023-01-10T05:02:39;99662.87;;;6.64;96.10
35507;BME280;36461;52.018;21.036;2023-01-10T05:05:12;99668.55;;;6.65;96.09
35507;BME280;36461;52.018;21.036;2023-01-10T05:07:40;99669.52;;;6.67;96.24
35507;BME280;36461;52.018;21.036;2023-01-10T05:10:12;99674.23;;;6.70;96.06
35507;BME280;36461;52.018;21.036;2023-01-10T05:12:41;99676.86;;;6.69;96.06
35507;BME280;36461;52.018;21.036;2023-01-10T05:15:09;99677.89;;;6.69;96.00
35507;BME280;36461;52.018;21.036;2023-01-10T05:17:38;99683.91;;;6.69;95.89
35507;BME280;36461;52.018;21.036;2023-01-10T05:20:07;99685.95;;;6.69;96.12
35507;BME280;36461;52.018;21.036;2023-01-10T05:22:35;99683.50;;;6.71;96.05
35507;BME280;36461;52.018;21.036;2023-01-10T05:25:04;99683.56;;;6.75;96.09
35507;BME280;36461;52.018;21.036;2023-01-10T05:27:32;99687.50;;;6.75;96.10
35507;BME280;36461;52.018;21.036;2023-01-10T05:30:00;99688.21;;;6.74;95.87
35507;BME280;36461;52.018;21.036;2023-01-10T05:32:28;99694.51;;;6.71;95.65
35507;BME280;36461;52.018;21.036;2023-01-10T05:34:56;99699.80;;;6.66;95.55
35507;BME280;36461;52.018;21.036;2023-01-10T05:37:24;99705.01;;;6.64;95.62
35507;BME280;36461;52.018;21.036;2023-01-10T05:39:52;99712.96;;;6.62;95.56
35507;BME280;36461;52.018;21.036;2023-01-10T05:42:21;99716.73;;;6.63;95.76
35507;BME280;36461;52.018;21.036;2023-01-10T05:44:49;99722.52;;;6.64;95.82
35507;BME280;36461;52.018;21.036;2023-01-10T05:47:17;99729.55;;;6.66;95.70
35507;BME280;36461;52.018;21.036;2023-01-10T05:49:45;99732.29;;;6.66;95.65
35507;BME280;36461;52.018;21.036;2023-01-10T05:52:14;99730.23;;;6.66;95.77
35507;BME280;36461;52.018;21.036;2023-01-10T05:54:42;99734.04;;;6.65;95.67
35507;BME280;36461;52.018;21.036;2023-01-10T05:57:12;99741.56;;;6.66;95.75
35507;BME280;36461;52.018;21.036;2023-01-10T05:59:41;99748.32;;;6.65;95.59
35507;BME280;36461;52.018;21.036;2023-01-10T06:02:09;99748.02;;;6.63;95.55
35507;BME280;36461;52.018;21.036;2023-01-10T06:04:37;99753.04;;;6.62;95.45
35507;BME280;36461;52.018;21.036;2023-01-10T06:07:06;99760.81;;;6.60;95.57
35507;BME280;36461;52.018;21.036;2023-01-10T06:09:34;99761.64;;;6.61;95.58
35507;BME280;36461;52.018;21.036;2023-01-10T06:12:02;99764.55;;;6.62;95.58
35507;BME280;36461;52.018;21.036;2023-01-10T06:14:30;99768.77;;;6.65;95.68
35507;BME280;36461;52.018;21.036;2023-01-10T06:16:58;99772.88;;;6.66;95.56
35507;BME280;36461;52.018;21.036;2023-01-10T06:19:26;99774.05;;;6.67;95.62
35507;BME280;36461;52.018;21.036;2023-01-10T06:21:54;99777.17;;;6.66;95.50
35507;BME280;36461;52.018;21.036;2023-01-10T06:24:22;99778.94;;;6.64;95.21
35507;BME280;36461;52.018;21.036;2023-01-10T06:26:50;99788.07;;;6.63;95.15
35507;BME280;36461;52.018;21.036;2023-01-10T06:29:18;99791.02;;;6.62;95.27
35507;BME280;36461;52.018;21.036;2023-01-10T06:31:47;99794.58;;;6.64;95.30
35507;BME280;36461;52.018;21.036;2023-01-10T06:34:15;99796.67;;;6.63;95.16
35507;BME280;36461;52.018;21.036;2023-01-10T06:36:43;99799.77;;;6.63;95.33
35507;BME280;36461;52.018;21.036;2023-01-10T06:39:11;99806.45;;;6.64;95.24
35507;BME280;36461;52.018;21.036;2023-01-10T06:41:40;99808.39;;;6.62;95.18
35507;BME280;36461;52.018;21.036;2023-01-10T06:44:08;99806.67;;;6.62;95.20
35507;BME280;36461;52.018;21.036;2023-01-10T06:46:36;99813.55;;;6.62;95.20
35507;BME280;36461;52.018;21.036;2023-01-10T06:49:04;99815.41;;;6.63;95.18
35507;BME280;36461;52.018;21.036;2023-01-10T06:51:32;99819.92;;;6.61;95.13
35507;BME280;36461;52.018;21.036;2023-01-10T06:54:00;99826.30;;;6.60;95.08
35507;BME280;36461;52.018;21.036;2023-01-10T06:56:28;99833.36;;;6.61;94.97
35507;BME280;36461;52.018;21.036;2023-01-10T06:58:56;99834.58;;;6.60;95.09
35507;BME280;36461;52.018;21.036;2023-01-10T07:01:25;99839.23;;;6.59;95.11
35507;BME280;36461;52.018;21.036;2023-01-10T07:03:53;99846.66;;;6.58;94.94
35507;BME280;36461;52.018;21.036;2023-01-10T07:06:21;99847.88;;;6.57;94.95
35507;BME280;36461;52.018;21.036;2023-01-10T07:08:49;99848.28;;;6.55;94.90
35507;BME280;36461;52.018;21.036;2023-01-10T07:11:17;99849.44;;;6.57;95.14
35507;BME280;36461;52.018;21.036;2023-01-10T07:13:45;99847.89;;;6.57;94.93
35507;BME280;36461;52.018;21.036;2023-01-10T07:16:14;99851.52;;;6.56;94.83
35507;BME280;36461;52.018;21.036;2023-01-10T07:18:43;99853.59;;;6.56;94.85
35507;BME280;36461;52.018;21.036;2023-01-10T07:21:11;99854.40;;;6.50;94.63
35507;BME280;36461;52.018;21.036;2023-01-10T07:23:40;99856.29;;;6.51;94.96
35507;BME280;36461;52.018;21.036;2023-01-10T07:26:10;99861.83;;;6.56;95.20
35507;BME280;36461;52.018;21.036;2023-01-10T07:28:38;99860.52;;;6.61;95.18
35507;BME280;36461;52.018;21.036;2023-01-10T07:31:07;99864.32;;;6.60;95.00
35507;BME280;36461;52.018;21.036;2023-01-10T07:33:35;99859.19;;;6.59;94.85
35507;BME280;36461;52.018;21.036;2023-01-10T07:36:03;99862.45;;;6.59;94.74
35507;BME280;36461;52.018;21.036;2023-01-10T07:38:32;99861.98;;;6.58;94.69
35507;BME280;36461;52.018;21.036;2023-01-10T07:41:01;99864.92;;;6.56;94.66
35507;BME280;36461;52.018;21.036;2023-01-10T07:43:31;99869.39;;;6.57;94.80
35507;BME280;36461;52.018;21.036;2023-01-10T07:46:00;99870.42;;;6.56;94.83
35507;BME280;36461;52.018;21.036;2023-01-10T07:48:30;99869.40;;;6.56;94.48
35507;BME280;36461;52.018;21.036;2023-01-10T07:50:59;99871.89;;;6.52;94.46
35507;BME280;36461;52.018;21.036;2023-01-10T07:53:28;99876.06;;;6.50;94.46
35507;BME280;36461;52.018;21.036;2023-01-10T07:56:01;99883.61;;;6.51;94.49
35507;BME280;36461;52.018;21.036;2023-01-10T07:58:30;99887.20;;;6.52;94.55
35507;BME280;36461;52.018;21.036;2023-01-10T08:01:01;99891.36;;;6.50;94.40
35507;BME280;36461;52.018;21.036;2023-01-10T08:03:30;99896.34;;;6.51;94.36
35507;BME280;36461;52.018;21.036;2023-01-10T08:06:05;99900.81;;;6.51;94.40
35507;BME280;36461;52.018;21.036;2023-01-10T08:08:33;99903.26;;;6.49;94.07
35507;BME280;36461;52.018;21.036;2023-01-10T08:11:02;99908.80;;;6.47;94.02
35507;BME280;36461;52.018;21.036;2023-01-10T08:13:31;99913.11;;;6.47;94.22
35507;BME280;36461;52.018;21.036;2023-01-10T08:16:04;99918.62;;;6.46;94.04
35507;BME280;36461;52.018;21.036;2023-01-10T08:18:33;99921.75;;;6.45;93.97
35507;BME280;36461;52.018;21.036;2023-01-10T08:21:02;99923.81;;;6.45;94.00
35507;BME280;36461;52.018;21.036;2023-01-10T08:23:30;99929.33;;;6.44;93.89
35507;BME280;36461;52.018;21.036;2023-01-10T08:25:59;99929.01;;;6.44;93.84
35507;BME280;36461;52.018;21.036;2023-01-10T08:28:27;99933.34;;;6.42;93.92
35507;BME280;36461;52.018;21.036;2023-01-10T08:30:56;99930.84;;;6.45;94.01
35507;BME280;36461;52.018;21.036;2023-01-10T08:33:24;99937.36;;;6.46;93.76
35507;BME280;36461;52.018;21.036;2023-01-10T08:35:52;99941.98;;;6.47;93.83
35507;BME280;36461;52.018;21.036;2023-01-10T08:38:20;99943.48;;;6.49;93.80
35507;BME280;36461;52.018;21.036;2023-01-10T08:40:48;99946.24;;;6.49;93.48
35507;BME280;36461;52.018;21.036;2023-01-10T08:43:16;99948.70;;;6.46;93.37
35507;BME280;36461;52.018;21.036;2023-01-10T08:45:44;99952.17;;;6.45;93.47
35507;BME280;36461;52.018;21.036;2023-01-10T08:48:13;99963.79;;;6.48;93.50
35507;BME280;36461;52.018;21.036;2023-01-10T08:50:41;99960.56;;;6.46;93.33
35507;BME280;36461;52.018;21.036;2023-01-10T08:53:09;99967.98;;;6.45;93.19
35507;BME280;36461;52.018;21.036;2023-01-10T08:55:37;99968.80;;;6.47;93.28
35507;BME280;36461;52.018;21.036;2023-01-10T08:58:05;99974.27;;;6.48;93.10
35507;BME280;36461;52.018;21.036;2023-01-10T09:00:33;99978.70;;;6.50;93.33
35507;BME280;36461;52.018;21.036;2023-01-10T09:03:05;99992.02;;;6.54;93.19
35507;BME280;36461;52.018;21.036;2023-01-10T09:05:33;99996.41;;;6.58;93.11
35507;BME280;36461;52.018;21.036;2023-01-10T09:08:02;99995.52;;;6.59;92.97
35507;BME280;36461;52.018;21.036;2023-01-10T09:10:31;99998.27;;;6.60;92.84
35507;BME280;36461;52.018;21.036;2023-01-10T09:13:00;99999.65;;;6.59;92.62
35507;BME280;36461;52.018;21.036;2023-01-10T09:15:31;100004.28;;;6.60;92.41
35507;BME280;36461;52.018;21.036;2023-01-10T09:18:03;99999.65;;;6.59;92.44
35507;BME280;36461;52.018;21.036;2023-01-10T09:20:35;99995.83;;;6.61;92.49
35507;BME280;36461;52.018;21.036;2023-01-10T09:23:10;99995.69;;;6.60;92.29
35507;BME280;36461;52.018;21.036;2023-01-10T09:25:38;99994.71;;;6.57;92.21
35507;BME280;36461;52.018;21.036;2023-01-10T09:28:06;99998.97;;;6.59;92.38
35507;BME280;36461;52.018;21.036;2023-01-10T09:30:35;100004.84;;;6.58;92.19
35507;BME280;36461;52.018;21.036;2023-01-10T09:33:03;100002.98;;;6.56;92.05
35507;BME280;36461;52.018;21.036;2023-01-10T09:35:34;100001.92;;;6.58;92.39
35507;BME280;36461;52.018;21.036;2023-01-10T09:38:05;99997.58;;;6.60;92.25
35507;BME280;36461;52.018;21.036;2023-01-10T09:46:22;100000.28;;;6.62;92.22
35507;BME280;36461;52.018;21.036;2023-01-10T09:49:09;99996.38;;;6.59;92.07
35507;BME280;36461;52.018;21.036;2023-01-10T09:51:42;99994.95;;;6.54;91.84
35507;BME280;36461;52.018;21.036;2023-01-10T09:54:22;99994.33;;;6.51;91.95
35507;BME280;36461;52.018;21.036;2023-01-10T09:56:53;99986.70;;;6.54;92.42
35507;BME280;36461;52.018;21.036;2023-01-10T09:59:31;99990.42;;;6.56;92.20
35507;BME280;36461;52.018;21.036;2023-01-10T10:05:18;99992.24;;;6.59;92.12
35507;BME280;36461;52.018;21.036;2023-01-10T10:07:55;99992.06;;;6.61;92.25
35507;BME280;36461;52.018;21.036;2023-01-10T10:10:38;99992.00;;;6.63;92.15
35507;BME280;36461;52.018;21.036;2023-01-10T10:33:53;100013.40;;;6.74;91.46
35507;BME280;36461;52.018;21.036;2023-01-10T10:36:55;100017.73;;;6.74;91.50
35507;BME280;36461;52.018;21.036;2023-01-10T10:39:37;100018.52;;;6.76;91.58
35507;BME280;36461;52.018;21.036;2023-01-10T10:42:12;100018.95;;;6.80;91.57
35507;BME280;36461;52.018;21.036;2023-01-10T10:44:52;100014.14;;;6.80;91.42
35507;BME280;36461;52.018;21.036;2023-01-10T10:47:23;100016.44;;;6.78;91.04
35507;BME280;36461;52.018;21.036;2023-01-10T10:52:42;100027.19;;;6.73;90.87
35507;BME280;36461;52.018;21.036;2023-01-10T10:55:13;100026.67;;;6.73;91.16
35507;BME280;36461;52.018;21.036;2023-01-10T10:57:44;100025.86;;;6.72;91.00
35507;BME280;36461;52.018;21.036;2023-01-10T11:00:27;100030.35;;;6.70;90.76
35507;BME280;36461;52.018;21.036;2023-01-10T11:05:49;100033.40;;;6.73;91.09
35507;BME280;36461;52.018;21.036;2023-01-10T11:08:18;100035.92;;;6.76;91.24
35507;BME280;36461;52.018;21.036;2023-01-10T11:10:53;100037.21;;;6.80;91.07
35507;BME280;36461;52.018;21.036;2023-01-10T11:16:06;100046.02;;;6.78;90.88
35507;BME280;36461;52.018;21.036;2023-01-10T11:18:34;100049.46;;;6.78;90.79
35507;BME280;36461;52.018;21.036;2023-01-10T11:21:08;100052.52;;;6.79;90.72
35507;BME280;36461;52.018;21.036;2023-01-10T11:23:49;100061.77;;;6.80;90.76
35507;BME280;36461;52.018;21.036;2023-01-10T11:26:38;100066.71;;;6.83;90.83
35507;BME280;36461;52.018;21.036;2023-01-10T11:29:14;100068.38;;;6.86;90.73
35507;BME280;36461;52.018;21.036;2023-01-10T11:31:48;100069.52;;;6.87;90.47
35507;BME280;36461;52.018;21.036;2023-01-10T11:37:17;100074.65;;;6.89;90.48
35507;BME280;36461;52.018;21.036;2023-01-10T11:39:46;100079.52;;;6.96;90.84
35507;BME280;36461;52.018;21.036;2023-01-10T11:42:32;100079.42;;;7.00;90.52
35507;BME280;36461;52.018;21.036;2023-01-10T11:47:48;100078.92;;;7.07;90.57
35507;BME280;36461;52.018;21.036;2023-01-10T11:50:29;100085.52;;;7.12;90.29
35507;BME280;36461;52.018;21.036;2023-01-10T11:52:59;100093.84;;;7.09;90.11
35507;BME280;36461;52.018;21.036;2023-01-10T11:55:31;100097.55;;;7.05;89.76
35507;BME280;36461;52.018;21.036;2023-01-10T11:58:09;100104.26;;;7.04;89.83
35507;BME280;36461;52.018;21.036;2023-01-10T12:00:48;100106.35;;;7.03;89.96
35507;BME280;36461;52.018;21.036;2023-01-10T12:03:30;100111.09;;;7.07;90.05
35507;BME280;36461;52.018;21.036;2023-01-10T12:06:02;100107.52;;;7.05;89.72
35507;BME280;36461;52.018;21.036;2023-01-10T12:08:33;100114.02;;;7.07;89.96
35507;BME280;36461;52.018;21.036;2023-01-10T12:11:05;100114.85;;;7.08;89.79
35507;BME280;36461;52.018;21.036;2023-01-10T12:13:46;100116.55;;;7.09;89.86
35507;BME280;36461;52.018;21.036;2023-01-10T12:16:22;100119.69;;;7.07;89.58
35507;BME280;36461;52.018;21.036;2023-01-10T12:18:53;100123.54;;;7.05;89.59
35507;BME280;36461;52.018;21.036;2023-01-10T12:23:56;100133.88;;;7.03;89.51
35507;BME280;36461;52.018;21.036;2023-01-10T12:26:29;100138.17;;;7.04;89.47
35507;BME280;36461;52.018;21.036;2023-01-10T12:29:04;100138.26;;;7.00;89.35
35507;BME280;36461;52.018;21.036;2023-01-10T12:31:34;100138.65;;;6.98;89.38
35507;BME280;36461;52.018;21.036;2023-01-10T12:34:09;100140.80;;;7.01;89.61
35507;BME280;36461;52.018;21.036;2023-01-10T12:39:26;100145.37;;;6.97;89.28
35507;BME280;36461;52.018;21.036;2023-01-10T12:45:02;100159.38;;;6.94;89.27
35507;BME280;36461;52.018;21.036;2023-01-10T12:55:04;100173.02;;;6.92;89.30
35507;BME280;36461;52.018;21.036;2023-01-10T12:57:36;100174.98;;;6.88;89.14
35507;BME280;36461;52.018;21.036;2023-01-10T13:00:25;100176.10;;;6.84;89.33
35507;BME280;36461;52.018;21.036;2023-01-10T13:02:59;100182.28;;;6.83;89.36
35507;BME280;36461;52.018;21.036;2023-01-10T13:05:31;100188.42;;;6.86;89.60
35507;BME280;36461;52.018;21.036;2023-01-10T13:08:04;100189.90;;;6.91;89.60
35507;BME280;36461;52.018;21.036;2023-01-10T13:10:38;100195.42;;;6.88;89.39
35507;BME280;36461;52.018;21.036;2023-01-10T13:13:30;100198.84;;;6.90;89.46
35507;BME280;36461;52.018;21.036;2023-01-10T13:16:25;100196.64;;;6.88;89.43
35507;BME280;36461;52.018;21.036;2023-01-10T13:19:23;100204.16;;;6.92;89.32
35507;BME280;36461;52.018;21.036;2023-01-10T13:22:18;100217.76;;;6.91;89.36
35507;BME280;36461;52.018;21.036;2023-01-10T13:24:57;100222.73;;;6.92;89.45
35507;BME280;36461;52.018;21.036;2023-01-10T13:27:34;100227.57;;;6.90;89.14
35507;BME280;36461;52.018;21.036;2023-01-10T13:30:03;100232.77;;;6.88;89.26
35507;BME280;36461;52.018;21.036;2023-01-10T13:32:34;100231.27;;;6.86;89.14
35507;BME280;36461;52.018;21.036;2023-01-10T13:35:17;100235.28;;;6.83;89.12
35507;BME280;36461;52.018;21.036;2023-01-10T13:37:53;100238.95;;;6.80;89.09
35507;BME280;36461;52.018;21.036;2023-01-10T13:40:25;100243.98;;;6.77;89.20
35507;BME280;36461;52.018;21.036;2023-01-10T13:44:16;100245.05;;;6.75;89.16
35507;BME280;36461;52.018;21.036;2023-01-10T13:51:19;100247.00;;;6.62;89.14
35507;BME280;36461;52.018;21.036;2023-01-10T13:56:35;100252.54;;;6.70;89.35
35507;BME280;36461;52.018;21.036;2023-01-10T14:02:22;100268.37;;;6.61;89.23
35507;BME280;36461;52.018;21.036;2023-01-10T14:05:07;100268.73;;;6.60;89.27
35507;BME280;36461;52.018;21.036;2023-01-10T14:07:49;100266.52;;;6.58;89.30
35507;BME280;36461;52.018;21.036;2023-01-10T14:10:31;100272.17;;;6.59;89.35
35507;BME280;36461;52.018;21.036;2023-01-10T14:13:02;100276.64;;;6.59;89.37
35507;BME280;36461;52.018;21.036;2023-01-10T14:15:40;100278.58;;;6.57;89.43
35507;BME280;36461;52.018;21.036;2023-01-10T14:18:20;100280.13;;;6.56;89.39
35507;BME280;36461;52.018;21.036;2023-01-10T14:21:04;100287.40;;;6.54;89.33
35507;BME280;36461;52.018;21.036;2023-01-10T14:23:42;100293.94;;;6.53;89.60
35507;BME280;36461;52.018;21.036;2023-01-10T14:26:22;100299.45;;;6.53;89.49
35507;BME280;36461;52.018;21.036;2023-01-10T14:28:54;100300.71;;;6.48;89.49
35507;BME280;36461;52.018;21.036;2023-01-10T14:31:23;100299.35;;;6.48;89.58
35507;BME280;36461;52.018;21.036;2023-01-10T14:33:53;100296.93;;;6.48;89.70
35507;BME280;36461;52.018;21.036;2023-01-10T14:36:45;100298.33;;;6.48;89.55
35507;BME280;36461;52.018;21.036;2023-01-10T14:39:16;100301.82;;;6.45;89.53
35507;BME280;36461;52.018;21.036;2023-01-10T14:41:46;100299.11;;;6.42;89.64
35507;BME280;36461;52.018;21.036;2023-01-10T14:44:25;100302.23;;;6.40;89.67
35507;BME280;36461;52.018;21.036;2023-01-10T14:46:56;100306.04;;;6.39;89.54
35507;BME280;36461;52.018;21.036;2023-01-10T14:49:36;100303.98;;;6.38;89.83
35507;BME280;36461;52.018;21.036;2023-01-10T14:54:43;100311.54;;;6.38;89.54
35507;BME280;36461;52.018;21.036;2023-01-10T14:57:20;100305.86;;;6.38;89.75
35507;BME280;36461;52.018;21.036;2023-01-10T15:00:00;100309.14;;;6.38;89.68
35507;BME280;36461;52.018;21.036;2023-01-10T15:02:31;100306.40;;;6.37;89.82
35507;BME280;36461;52.018;21.036;2023-01-10T15:05:06;100308.10;;;6.39;89.87
35507;BME280;36461;52.018;21.036;2023-01-10T15:07:36;100313.96;;;6.37;89.72
35507;BME280;36461;52.018;21.036;2023-01-10T15:10:27;100322.20;;;6.39;89.64